sensor_id;sensor_type;location;lat;lon;timestamp;pressure;altitude;pressure_sealevel;temperature;humidity
60337;BME280;46978;50.288;28.624;2023-06-10T00:00:07;98794.09;;;14.29;85.09
60337;BME280;46978;50.288;28.624;2023-06-10T00:01:09;98807.98;;;14.29;84.92
60337;BME280;46978;50.288;28.624;2023-06-10T00:02:10;98796.70;;;14.29;84.95
60337;BME280;46978;50.288;28.624;2023-06-10T00:03:12;98801.09;;;14.28;85.41
60337;BME280;46978;50.288;28.624;2023-06-10T00:04:17;98795.94;;;14.27;85.44
60337;BME280;46978;50.288;28.624;2023-06-10T00:05:18;98800.34;;;14.25;85.63
60337;BME280;46978;50.288;28.624;2023-06-10T00:06:20;98799.58;;;14.23;85.72
60337;BME280;46978;50.288;28.624;2023-06-10T00:07:21;98803.15;;;14.20;85.78
60337;BME280;46978;50.288;28.624;2023-06-10T00:08:23;98790.17;;;14.19;85.61
60337;BME280;46978;50.288;28.624;2023-06-10T00:09:25;98789.33;;;14.18;85.40
60337;BME280;46978;50.288;28.624;2023-06-10T00:10:26;98798.93;;;14.18;85.87
60337;BME280;46978;50.288;28.624;2023-06-10T00:11:28;98791.17;;;14.16;85.96
60337;BME280;46978;50.288;28.624;2023-06-10T00:12:29;98800.80;;;14.14;86.84
60337;BME280;46978;50.288;28.624;2023-06-10T00:13:31;98789.59;;;14.12;86.99
60337;BME280;46978;50.288;28.624;2023-06-10T00:14:33;98796.64;;;14.10;86.86
60337;BME280;46978;50.288;28.624;2023-06-10T00:15:35;98791.55;;;14.07;86.61
60337;BME280;46978;50.288;28.624;2023-06-10T00:16:36;98787.30;;;14.04;87.10
60337;BME280;46978;50.288;28.624;2023-06-10T00:17:38;98790.81;;;14.03;86.78
60337;BME280;46978;50.288;28.624;2023-06-10T00:18:40;98793.42;;;14.03;86.71
60337;BME280;46978;50.288;28.624;2023-06-10T00:19:41;98791.74;;;14.02;86.80
60337;BME280;46978;50.288;28.624;2023-06-10T00:20:43;98796.16;;;14.00;87.34
60337;BME280;46978;50.288;28.624;2023-06-10T00:21:45;98790.16;;;13.98;87.75
60337;BME280;46978;50.288;28.624;2023-06-10T00:22:46;98791.13;;;13.95;87.55
60337;BME280;46978;50.288;28.624;2023-06-10T00:23:48;98784.30;;;13.93;87.95
60337;BME280;46978;50.288;28.624;2023-06-10T00:24:49;98787.93;;;13.89;87.60
60337;BME280;46978;50.288;28.624;2023-06-10T00:25:51;98789.77;;;13.87;88.45
60337;BME280;46978;50.288;28.624;2023-06-10T00:26:53;98789.83;;;13.85;88.60
60337;BME280;46978;50.288;28.624;2023-06-10T00:27:55;98784.67;;;13.84;88.15
60337;BME280;46978;50.288;28.624;2023-06-10T00:28:56;98782.19;;;13.80;88.11
60337;BME280;46978;50.288;28.624;2023-06-10T00:29:58;98783.92;;;13.80;88.54
60337;BME280;46978;50.288;28.624;2023-06-10T00:30:59;98781.38;;;13.78;88.02
60337;BME280;46978;50.288;28.624;2023-06-10T00:32:01;98783.22;;;13.76;87.34
60337;BME280;46978;50.288;28.624;2023-06-10T00:33:03;98780.67;;;13.75;87.28
60337;BME280;46978;50.288;28.624;2023-06-10T00:34:04;98778.96;;;13.74;87.71
60337;BME280;46978;50.288;28.624;2023-06-10T00:35:06;98788.55;;;13.73;87.39
60337;BME280;46978;50.288;28.624;2023-06-10T00:36:09;98782.56;;;13.71;87.16
60337;BME280;46978;50.288;28.624;2023-06-10T00:37:10;98780.08;;;13.68;88.16
60337;BME280;46978;50.288;28.624;2023-06-10T00:38:13;98774.92;;;13.67;88.87
60337;BME280;46978;50.288;28.624;2023-06-10T00:39:15;98782.81;;;13.65;88.39
60337;BME280;46978;50.288;28.624;2023-06-10T00:40:18;98775.89;;;13.64;88.51
60337;BME280;46978;50.288;28.624;2023-06-10T00:41:20;98782.88;;;13.63;88.04
60337;BME280;46978;50.288;28.624;2023-06-10T00:42:21;98771.57;;;13.63;88.01
60337;BME280;46978;50.288;28.624;2023-06-10T00:43:23;98771.63;;;13.61;87.48
60337;BME280;46978;50.288;28.624;2023-06-10T00:44:24;98778.62;;;13.61;87.67
60337;BME280;46978;50.288;28.624;2023-06-10T00:45:26;98776.91;;;13.60;88.55
60337;BME280;46978;50.288;28.624;2023-06-10T00:46:28;98772.56;;;13.60;89.00
60337;BME280;46978;50.288;28.624;2023-06-10T00:47:30;98776.91;;;13.60;88.75
60337;BME280;46978;50.288;28.624;2023-06-10T00:48:32;98778.68;;;13.59;89.01
60337;BME280;46978;50.288;28.624;2023-06-10T00:49:34;98774.36;;;13.58;88.93
60337;BME280;46978;50.288;28.624;2023-06-10T00:50:36;98771.81;;;13.57;88.85
60337;BME280;46978;50.288;28.624;2023-06-10T00:51:38;98774.42;;;13.57;88.71
60337;BME280;46978;50.288;28.624;2023-06-10T00:52:41;98772.75;;;13.56;89.07
60337;BME280;46978;50.288;28.624;2023-06-10T00:53:43;98770.98;;;13.56;89.58
60337;BME280;46978;50.288;28.624;2023-06-10T00:54:46;98767.53;;;13.56;89.36
60337;BME280;46978;50.288;28.624;2023-06-10T00:55:48;98770.14;;;13.56;89.44
60337;BME280;46978;50.288;28.624;2023-06-10T00:56:49;98771.94;;;13.54;89.51
60337;BME280;46978;50.288;28.624;2023-06-10T00:57:51;98771.88;;;13.55;90.61
60337;BME280;46978;50.288;28.624;2023-06-10T00:58:53;98772.00;;;13.52;90.58
60337;BME280;46978;50.288;28.624;2023-06-10T00:59:54;98771.16;;;13.52;91.33
60337;BME280;46978;50.288;28.624;2023-06-10T01:00:56;98769.45;;;13.51;91.87
60337;BME280;46978;50.288;28.624;2023-06-10T01:01:59;98775.59;;;13.50;92.27
60337;BME280;46978;50.288;28.624;2023-06-10T01:03:00;98767.84;;;13.48;92.20
60337;BME280;46978;50.288;28.624;2023-06-10T01:04:02;98770.45;;;13.48;92.57
60337;BME280;46978;50.288;28.624;2023-06-10T01:05:04;98777.39;;;13.48;91.89
60337;BME280;46978;50.288;28.624;2023-06-10T01:06:14;98774.02;;;13.45;91.61
60337;BME280;46978;50.288;28.624;2023-06-10T01:07:25;98769.70;;;13.44;91.74
60337;BME280;46978;50.288;28.624;2023-06-10T01:11:19;98771.70;;;13.38;92.54
60337;BME280;46978;50.288;28.624;2023-06-10T01:12:31;98763.95;;;13.36;92.90
60337;BME280;46978;50.288;28.624;2023-06-10T01:13:34;98771.83;;;13.35;92.19
60337;BME280;46978;50.288;28.624;2023-06-10T01:14:37;98771.89;;;13.33;91.81
60337;BME280;46978;50.288;28.624;2023-06-10T01:15:42;98771.97;;;13.30;92.58
60337;BME280;46978;50.288;28.624;2023-06-10T01:16:43;98771.97;;;13.30;92.58
60337;BME280;46978;50.288;28.624;2023-06-10T01:18:00;98769.42;;;13.28;93.28
60337;BME280;46978;50.288;28.624;2023-06-10T01:19:02;98771.19;;;13.28;93.55
60337;BME280;46978;50.288;28.624;2023-06-10T01:20:05;98766.94;;;13.25;93.71
60337;BME280;46978;50.288;28.624;2023-06-10T01:21:07;98770.44;;;13.24;93.83
60337;BME280;46978;50.288;28.624;2023-06-10T01:22:09;98770.56;;;13.21;93.74
60337;BME280;46978;50.288;28.624;2023-06-10T01:23:11;98774.93;;;13.21;93.73
60337;BME280;46978;50.288;28.624;2023-06-10T01:24:12;98775.88;;;13.18;93.64
60337;BME280;46978;50.288;28.624;2023-06-10T01:25:14;98773.37;;;13.17;93.55
60337;BME280;46978;50.288;28.624;2023-06-10T01:26:18;98776.03;;;13.15;93.78
60337;BME280;46978;50.288;28.624;2023-06-10T01:27:22;98781.36;;;13.12;93.21
60337;BME280;46978;50.288;28.624;2023-06-10T01:28:34;98775.40;;;13.08;92.95
60337;BME280;46978;50.288;28.624;2023-06-10T01:29:39;98776.33;;;13.07;93.03
60337;BME280;46978;50.288;28.624;2023-06-10T01:30:46;98776.33;;;13.07;93.05
60337;BME280;46978;50.288;28.624;2023-06-10T01:31:58;98784.14;;;13.07;92.96
60337;BME280;46978;50.288;28.624;2023-06-10T01:32:59;98782.44;;;13.06;93.03
60337;BME280;46978;50.288;28.624;2023-06-10T01:34:01;98777.28;;;13.05;93.55
60337;BME280;46978;50.288;28.624;2023-06-10T01:35:05;98777.34;;;13.03;93.69
60337;BME280;46978;50.288;28.624;2023-06-10T01:36:10;98782.55;;;13.03;93.88
60337;BME280;46978;50.288;28.624;2023-06-10T01:37:15;98765.16;;;13.04;93.83
60337;BME280;46978;50.288;28.624;2023-06-10T01:38:19;98779.94;;;13.03;94.12
60337;BME280;46978;50.288;28.624;2023-06-10T01:39:23;98781.70;;;13.03;93.92
60337;BME280;46978;50.288;28.624;2023-06-10T01:40:26;98780.84;;;13.02;94.42
60337;BME280;46978;50.288;28.624;2023-06-10T01:41:28;98776.56;;;13.01;94.52
60337;BME280;46978;50.288;28.624;2023-06-10T01:42:30;98780.95;;;12.99;94.42
60337;BME280;46978;50.288;28.624;2023-06-10T01:43:37;98780.17;;;12.97;94.03
60337;BME280;46978;50.288;28.624;2023-06-10T01:44:39;98775.02;;;12.96;94.37
60337;BME280;46978;50.288;28.624;2023-06-10T01:45:41;98776.03;;;12.91;94.05
60337;BME280;46978;50.288;28.624;2023-06-10T01:46:43;98776.03;;;12.91;94.05
60337;BME280;46978;50.288;28.624;2023-06-10T01:47:44;98781.30;;;12.90;94.55
60337;BME280;46978;50.288;28.624;2023-06-10T01:48:46;98774.41;;;12.89;94.67
60337;BME280;46978;50.288;28.624;2023-06-10T01:49:48;98779.62;;;12.89;95.08
60337;BME280;46978;50.288;28.624;2023-06-10T01:50:50;98779.62;;;12.89;95.29
60337;BME280;46978;50.288;28.624;2023-06-10T01:51:52;98776.09;;;12.90;95.81
60337;BME280;46978;50.288;28.624;2023-06-10T01:52:53;98769.20;;;12.89;95.66
60337;BME280;46978;50.288;28.624;2023-06-10T01:53:55;98777.91;;;12.88;95.80
60337;BME280;46978;50.288;28.624;2023-06-10T01:54:56;98770.99;;;12.87;94.87
60337;BME280;46978;50.288;28.624;2023-06-10T01:55:58;98773.66;;;12.85;94.81
60337;BME280;46978;50.288;28.624;2023-06-10T01:57:00;98777.19;;;12.84;93.86
60337;BME280;46978;50.288;28.624;2023-06-10T01:58:02;98773.77;;;12.82;94.36
60337;BME280;46978;50.288;28.624;2023-06-10T01:59:03;98776.31;;;12.84;94.71
60337;BME280;46978;50.288;28.624;2023-06-10T02:00:06;98775.53;;;12.82;95.60
60337;BME280;46978;50.288;28.624;2023-06-10T02:01:08;98771.16;;;12.82;95.62
60337;BME280;46978;50.288;28.624;2023-06-10T02:02:10;98770.38;;;12.80;95.01
60337;BME280;46978;50.288;28.624;2023-06-10T02:03:11;98773.82;;;12.81;95.37
60337;BME280;46978;50.288;28.624;2023-06-10T02:04:13;98772.09;;;12.81;95.25
60337;BME280;46978;50.288;28.624;2023-06-10T02:05:14;98776.42;;;12.81;95.06
60337;BME280;46978;50.288;28.624;2023-06-10T02:06:17;98764.56;;;12.73;93.83
60337;BME280;46978;50.288;28.624;2023-06-10T02:07:18;98774.80;;;12.78;93.28
60337;BME280;46978;50.288;28.624;2023-06-10T02:08:20;98775.70;;;12.77;92.93
60337;BME280;46978;50.288;28.624;2023-06-10T02:09:22;98775.70;;;12.77;94.09
60337;BME280;46978;50.288;28.624;2023-06-10T02:10:24;98772.26;;;12.77;93.82
60337;BME280;46978;50.288;28.624;2023-06-10T02:11:25;98774.92;;;12.75;93.28
60337;BME280;46978;50.288;28.624;2023-06-10T02:12:27;98780.06;;;12.77;93.84
60337;BME280;46978;50.288;28.624;2023-06-10T02:13:30;98774.86;;;12.77;94.95
60337;BME280;46978;50.288;28.624;2023-06-10T02:14:32;98778.30;;;12.77;95.16
60337;BME280;46978;50.288;28.624;2023-06-10T02:15:34;98779.20;;;12.76;95.20
60337;BME280;46978;50.288;28.624;2023-06-10T02:16:35;98777.47;;;12.77;95.43
60337;BME280;46978;50.288;28.624;2023-06-10T02:17:37;98774.05;;;12.74;96.01
60337;BME280;46978;50.288;28.624;2023-06-10T02:18:40;98774.05;;;12.74;96.27
60337;BME280;46978;50.288;28.624;2023-06-10T02:19:42;98773.20;;;12.74;96.33
60337;BME280;46978;50.288;28.624;2023-06-10T02:20:44;98777.52;;;12.75;96.15
60337;BME280;46978;50.288;28.624;2023-06-10T02:21:45;98777.47;;;12.77;96.45
60337;BME280;46978;50.288;28.624;2023-06-10T02:22:47;98771.33;;;12.78;97.41
60337;BME280;46978;50.288;28.624;2023-06-10T02:23:48;98772.20;;;12.78;97.75
60337;BME280;46978;50.288;28.624;2023-06-10T02:24:50;98776.48;;;12.79;97.85
60337;BME280;46978;50.288;28.624;2023-06-10T02:25:51;98771.22;;;12.81;98.13
60337;BME280;46978;50.288;28.624;2023-06-10T02:26:53;98773.70;;;12.84;98.20
60337;BME280;46978;50.288;28.624;2023-06-10T02:27:55;98771.05;;;12.85;98.06
60337;BME280;46978;50.288;28.624;2023-06-10T02:28:56;98776.20;;;12.87;97.83
60337;BME280;46978;50.288;28.624;2023-06-10T02:29:58;98779.62;;;12.89;97.28
60337;BME280;46978;50.288;28.624;2023-06-10T02:31:00;98777.85;;;12.89;97.02
60337;BME280;46978;50.288;28.624;2023-06-10T02:32:02;98782.95;;;12.93;97.11
60337;BME280;46978;50.288;28.624;2023-06-10T02:33:04;98782.89;;;12.94;96.87
60337;BME280;46978;50.288;28.624;2023-06-10T02:34:06;98788.09;;;12.94;96.67
60337;BME280;46978;50.288;28.624;2023-06-10T02:35:07;98789.80;;;12.95;96.41
60337;BME280;46978;50.288;28.624;2023-06-10T02:36:10;98786.50;;;12.90;96.54
60337;BME280;46978;50.288;28.624;2023-06-10T02:37:12;98785.89;;;12.83;97.50
60337;BME280;46978;50.288;28.624;2023-06-10T02:38:13;98786.73;;;12.84;97.47
60337;BME280;46978;50.288;28.624;2023-06-10T02:39:15;98787.54;;;12.86;97.32
60337;BME280;46978;50.288;28.624;2023-06-10T02:40:17;98787.38;;;12.90;97.18
60337;BME280;46978;50.288;28.624;2023-06-10T02:41:19;98786.27;;;12.96;96.98
60337;BME280;46978;50.288;28.624;2023-06-10T02:42:21;98787.81;;;13.02;96.84
60337;BME280;46978;50.288;28.624;2023-06-10T02:43:22;98791.95;;;13.07;96.67
60337;BME280;46978;50.288;28.624;2023-06-10T02:44:24;98785.76;;;13.10;96.79
60337;BME280;46978;50.288;28.624;2023-06-10T02:45:25;98792.39;;;13.19;96.61
60337;BME280;46978;50.288;28.624;2023-06-10T02:46:27;98796.31;;;13.29;96.56
60337;BME280;46978;50.288;28.624;2023-06-10T02:47:28;98799.23;;;13.45;95.94
60337;BME280;46978;50.288;28.624;2023-06-10T02:48:30;98808.07;;;13.63;94.89
60337;BME280;46978;50.288;28.624;2023-06-10T02:49:32;98806.44;;;13.83;94.32
60337;BME280;46978;50.288;28.624;2023-06-10T02:50:33;98802.18;;;14.02;93.88
60337;BME280;46978;50.288;28.624;2023-06-10T02:51:35;98798.55;;;14.27;92.16
60337;BME280;46978;50.288;28.624;2023-06-10T02:52:37;98791.34;;;14.52;91.75
60337;BME280;46978;50.288;28.624;2023-06-10T02:53:38;98785.91;;;14.78;90.13
60337;BME280;46978;50.288;28.624;2023-06-10T02:54:40;98791.66;;;15.05;89.74
60337;BME280;46978;50.288;28.624;2023-06-10T02:55:41;98797.25;;;15.35;88.79
60337;BME280;46978;50.288;28.624;2023-06-10T02:56:43;98802.63;;;15.69;86.76
60337;BME280;46978;50.288;28.624;2023-06-10T02:57:45;98798.02;;;15.93;84.34
60337;BME280;46978;50.288;28.624;2023-06-10T02:58:46;98801.39;;;16.12;82.28
60337;BME280;46978;50.288;28.624;2023-06-10T02:59:48;98791.25;;;16.24;80.61
60337;BME280;46978;50.288;28.624;2023-06-10T03:00:49;98806.16;;;16.22;80.02
60337;BME280;46978;50.288;28.624;2023-06-10T03:01:51;98806.02;;;16.07;79.99
60337;BME280;46978;50.288;28.624;2023-06-10T03:02:52;98811.09;;;16.10;80.64
60337;BME280;46978;50.288;28.624;2023-06-10T03:03:54;98804.56;;;16.19;80.68
60337;BME280;46978;50.288;28.624;2023-06-10T03:04:55;98800.62;;;16.28;79.88
60337;BME280;46978;50.288;28.624;2023-06-10T03:05:57;98807.09;;;16.38;80.43
60337;BME280;46978;50.288;28.624;2023-06-10T03:06:59;98798.05;;;16.61;79.74
60337;BME280;46978;50.288;28.624;2023-06-10T03:08:01;98808.11;;;16.87;78.39
60337;BME280;46978;50.288;28.624;2023-06-10T03:09:03;98796.72;;;16.88;76.52
60337;BME280;46978;50.288;28.624;2023-06-10T03:10:06;98797.30;;;16.93;76.71
60337;BME280;46978;50.288;28.624;2023-06-10T03:11:08;98797.30;;;16.93;76.71
60337;BME280;46978;50.288;28.624;2023-06-10T03:12:10;98797.44;;;17.07;76.18
60337;BME280;46978;50.288;28.624;2023-06-10T03:13:12;98804.77;;;17.16;76.34
60337;BME280;46978;50.288;28.624;2023-06-10T03:14:13;98803.69;;;17.20;75.38
60337;BME280;46978;50.288;28.624;2023-06-10T03:15:15;98810.88;;;17.17;75.15
60337;BME280;46978;50.288;28.624;2023-06-10T03:16:17;98812.22;;;17.08;75.25
60337;BME280;46978;50.288;28.624;2023-06-10T03:17:18;98802.38;;;16.96;75.28
60337;BME280;46978;50.288;28.624;2023-06-10T03:18:20;98801.95;;;16.88;75.82
60337;BME280;46978;50.288;28.624;2023-06-10T03:19:21;98804.87;;;16.81;75.74
60337;BME280;46978;50.288;28.624;2023-06-10T03:20:23;98800.11;;;16.72;76.40
60337;BME280;46978;50.288;28.624;2023-06-10T03:21:25;98803.73;;;16.70;76.98
60337;BME280;46978;50.288;28.624;2023-06-10T03:22:26;98807.38;;;16.67;76.59
60337;BME280;46978;50.288;28.624;2023-06-10T03:23:28;98803.21;;;16.63;77.01
60337;BME280;46978;50.288;28.624;2023-06-10T03:24:29;98805.83;;;16.63;77.37
60337;BME280;46978;50.288;28.624;2023-06-10T03:25:31;98807.45;;;16.65;77.38
60337;BME280;46978;50.288;28.624;2023-06-10T03:26:33;98803.81;;;16.68;77.28
60337;BME280;46978;50.288;28.624;2023-06-10T03:27:35;98801.27;;;16.66;77.58
60337;BME280;46978;50.288;28.624;2023-06-10T03:28:36;98797.06;;;16.64;77.35
60337;BME280;46978;50.288;28.624;2023-06-10T03:29:38;98813.02;;;16.59;77.57
60337;BME280;46978;50.288;28.624;2023-06-10T03:30:40;98801.75;;;16.57;78.13
60337;BME280;46978;50.288;28.624;2023-06-10T03:31:41;98806.83;;;16.60;78.01
60337;BME280;46978;50.288;28.624;2023-06-10T03:32:43;98799.75;;;16.62;77.84
60337;BME280;46978;50.288;28.624;2023-06-10T03:33:45;98800.44;;;16.66;77.88
60337;BME280;46978;50.288;28.624;2023-06-10T03:34:46;98810.08;;;16.65;77.20
60337;BME280;46978;50.288;28.624;2023-06-10T03:35:48;98804.13;;;16.62;77.54
60337;BME280;46978;50.288;28.624;2023-06-10T03:36:50;98816.62;;;16.57;77.72
60337;BME280;46978;50.288;28.624;2023-06-10T03:37:51;98815.08;;;16.53;78.14
60337;BME280;46978;50.288;28.624;2023-06-10T03:38:53;98814.40;;;16.49;78.47
60337;BME280;46978;50.288;28.624;2023-06-10T03:39:54;98816.11;;;16.50;78.62
60337;BME280;46978;50.288;28.624;2023-06-10T03:40:56;98816.03;;;16.52;78.60
60337;BME280;46978;50.288;28.624;2023-06-10T03:41:58;98818.48;;;16.55;78.50
60337;BME280;46978;50.288;28.624;2023-06-10T03:43:00;98818.48;;;16.55;78.29
60337;BME280;46978;50.288;28.624;2023-06-10T03:44:02;98816.55;;;16.58;78.44
60337;BME280;46978;50.288;28.624;2023-06-10T03:45:04;98812.94;;;16.61;78.35
60337;BME280;46978;50.288;28.624;2023-06-10T03:46:06;98810.08;;;16.65;78.34
60337;BME280;46978;50.288;28.624;2023-06-10T03:47:08;98808.13;;;16.69;78.19
60337;BME280;46978;50.288;28.624;2023-06-10T03:48:09;98815.83;;;16.72;78.21
60337;BME280;46978;50.288;28.624;2023-06-10T03:49:11;98812.30;;;16.73;78.29
60337;BME280;46978;50.288;28.624;2023-06-10T03:50:14;98809.52;;;16.76;78.59
60337;BME280;46978;50.288;28.624;2023-06-10T03:51:16;98807.57;;;16.80;78.66
60337;BME280;46978;50.288;28.624;2023-06-10T03:52:17;98805.70;;;16.82;79.03
60337;BME280;46978;50.288;28.624;2023-06-10T03:53:19;98816.19;;;16.82;79.27
60337;BME280;46978;50.288;28.624;2023-06-10T03:54:21;98817.05;;;16.82;79.58
60337;BME280;46978;50.288;28.624;2023-06-10T03:55:22;98819.47;;;16.87;79.67
60337;BME280;46978;50.288;28.624;2023-06-10T03:56:24;98810.58;;;16.90;79.47
60337;BME280;46978;50.288;28.624;2023-06-10T03:57:26;98819.30;;;16.90;79.14
60337;BME280;46978;50.288;28.624;2023-06-10T03:58:27;98817.44;;;16.92;79.30
60337;BME280;46978;50.288;28.624;2023-06-10T03:59:29;98819.97;;;16.94;79.34
60337;BME280;46978;50.288;28.624;2023-06-10T04:00:31;98825.97;;;16.96;79.76
60337;BME280;46978;50.288;28.624;2023-06-10T04:01:32;98821.59;;;16.96;80.08
60337;BME280;46978;50.288;28.624;2023-06-10T04:02:34;98822.19;;;17.01;80.36
60337;BME280;46978;50.288;28.624;2023-06-10T04:03:35;98818.41;;;17.07;80.49
60337;BME280;46978;50.288;28.624;2023-06-10T04:04:37;98823.98;;;17.17;80.58
60337;BME280;46978;50.288;28.624;2023-06-10T04:05:38;98821.20;;;17.20;79.65
60337;BME280;46978;50.288;28.624;2023-06-10T04:06:40;98819.17;;;17.25;79.47
60337;BME280;46978;50.288;28.624;2023-06-10T04:07:42;98822.45;;;17.29;79.30
60337;BME280;46978;50.288;28.624;2023-06-10T04:08:44;98821.20;;;17.36;78.98
60337;BME280;46978;50.288;28.624;2023-06-10T04:09:46;98822.83;;;17.38;78.54
60337;BME280;46978;50.288;28.624;2023-06-10T04:10:48;98827.12;;;17.39;78.78
60337;BME280;46978;50.288;28.624;2023-06-10T04:11:49;98824.41;;;17.41;78.92
60337;BME280;46978;50.288;28.624;2023-06-10T04:12:51;98821.79;;;17.41;78.79
60337;BME280;46978;50.288;28.624;2023-06-10T04:13:52;98819.00;;;17.44;78.57
60337;BME280;46978;50.288;28.624;2023-06-10T04:14:54;98821.45;;;17.47;78.53
60337;BME280;46978;50.288;28.624;2023-06-10T04:15:55;98822.41;;;17.46;78.33
60337;BME280;46978;50.288;28.624;2023-06-10T04:16:57;98822.23;;;17.49;78.73
60337;BME280;46978;50.288;28.624;2023-06-10T04:17:59;98827.14;;;17.55;78.28
60337;BME280;46978;50.288;28.624;2023-06-10T04:19:01;98819.84;;;17.61;78.22
60337;BME280;46978;50.288;28.624;2023-06-10T04:21:26;98819.51;;;17.67;78.18
60337;BME280;46978;50.288;28.624;2023-06-10T04:22:28;98820.78;;;17.76;77.94
60337;BME280;46978;50.288;28.624;2023-06-10T04:23:29;98827.44;;;17.81;78.01
60337;BME280;46978;50.288;28.624;2023-06-10T04:24:31;98821.18;;;17.84;78.05
60337;BME280;46978;50.288;28.624;2023-06-10T04:25:33;98819.30;;;17.86;77.63
60337;BME280;46978;50.288;28.624;2023-06-10T04:26:35;98821.78;;;17.89;77.50
60337;BME280;46978;50.288;28.624;2023-06-10T04:27:37;98822.48;;;17.93;77.48
60337;BME280;46978;50.288;28.624;2023-06-10T04:28:40;98822.97;;;17.99;77.57
60337;BME280;46978;50.288;28.624;2023-06-10T04:29:41;98818.20;;;18.06;77.36
60337;BME280;46978;50.288;28.624;2023-06-10T04:30:43;98826.23;;;18.19;77.29
60337;BME280;46978;50.288;28.624;2023-06-10T04:31:45;98821.28;;;18.28;77.16
60337;BME280;46978;50.288;28.624;2023-06-10T04:32:47;98826.91;;;18.37;76.53
60337;BME280;46978;50.288;28.624;2023-06-10T04:33:49;98818.02;;;18.39;75.72
60337;BME280;46978;50.288;28.624;2023-06-10T04:34:50;98820.55;;;18.41;74.97
60337;BME280;46978;50.288;28.624;2023-06-10T04:35:52;98821.20;;;18.44;75.50
60337;BME280;46978;50.288;28.624;2023-06-10T04:36:54;98821.39;;;18.41;74.99
60337;BME280;46978;50.288;28.624;2023-06-10T04:37:56;98815.30;;;18.41;74.73
60337;BME280;46978;50.288;28.624;2023-06-10T04:38:57;98821.03;;;18.48;74.59
60337;BME280;46978;50.288;28.624;2023-06-10T04:39:59;98816.24;;;18.54;74.50
60337;BME280;46978;50.288;28.624;2023-06-10T04:41:01;98821.13;;;18.60;73.94
60337;BME280;46978;50.288;28.624;2023-06-10T04:42:02;98812.97;;;18.65;74.55
60337;BME280;46978;50.288;28.624;2023-06-10T04:43:04;98820.85;;;18.65;74.23
60337;BME280;46978;50.288;28.624;2023-06-10T04:44:05;98820.11;;;18.63;73.91
60337;BME280;46978;50.288;28.624;2023-06-10T04:45:08;98820.11;;;18.63;73.59
60337;BME280;46978;50.288;28.624;2023-06-10T04:46:10;98817.48;;;18.63;73.52
60337;BME280;46978;50.288;28.624;2023-06-10T04:47:12;98820.30;;;18.60;73.42
60337;BME280;46978;50.288;28.624;2023-06-10T04:48:13;98817.67;;;18.60;74.17
60337;BME280;46978;50.288;28.624;2023-06-10T04:49:15;98822.83;;;18.61;74.40
60337;BME280;46978;50.288;28.624;2023-06-10T04:50:16;98821.81;;;18.64;74.75
60337;BME280;46978;50.288;28.624;2023-06-10T04:51:18;98828.55;;;18.68;74.74
60337;BME280;46978;50.288;28.624;2023-06-10T04:52:20;98823.30;;;18.68;74.35
60337;BME280;46978;50.288;28.624;2023-06-10T04:53:21;98822.55;;;18.66;74.14
60337;BME280;46978;50.288;28.624;2023-06-10T04:54:23;98819.56;;;18.72;74.36
60337;BME280;46978;50.288;28.624;2023-06-10T04:55:24;98828.49;;;18.84;73.49
60337;BME280;46978;50.288;28.624;2023-06-10T04:56:26;98820.44;;;19.02;73.48
60337;BME280;46978;50.288;28.624;2023-06-10T04:57:28;98825.68;;;19.16;72.88
60337;BME280;46978;50.288;28.624;2023-06-10T04:58:29;98821.26;;;19.31;72.52
60337;BME280;46978;50.288;28.624;2023-06-10T04:59:31;98828.73;;;19.51;71.95
60337;BME280;46978;50.288;28.624;2023-06-10T05:00:32;98824.28;;;19.66;70.15
60337;BME280;46978;50.288;28.624;2023-06-10T05:01:34;98828.95;;;19.76;69.60
60337;BME280;46978;50.288;28.624;2023-06-10T05:02:36;98823.42;;;19.80;69.50
60337;BME280;46978;50.288;28.624;2023-06-10T05:03:37;98834.92;;;19.92;68.52
60337;BME280;46978;50.288;28.624;2023-06-10T05:04:39;98833.69;;;19.98;68.33
60337;BME280;46978;50.288;28.624;2023-06-10T05:05:40;98836.66;;;20.06;68.33
60337;BME280;46978;50.288;28.624;2023-06-10T05:06:44;98833.39;;;20.02;68.50
60337;BME280;46978;50.288;28.624;2023-06-10T05:07:45;98834.28;;;20.16;68.63
60337;BME280;46978;50.288;28.624;2023-06-10T05:08:47;98834.30;;;20.29;68.29
60337;BME280;46978;50.288;28.624;2023-06-10T05:09:49;98846.86;;;20.38;66.59
60337;BME280;46978;50.288;28.624;2023-06-10T05:10:50;98843.19;;;20.40;66.35
60337;BME280;46978;50.288;28.624;2023-06-10T05:11:52;98845.05;;;20.38;66.00
60337;BME280;46978;50.288;28.624;2023-06-10T05:12:53;98837.45;;;20.34;65.17
60337;BME280;46978;50.288;28.624;2023-06-10T05:13:55;98837.91;;;20.40;66.06
60337;BME280;46978;50.288;28.624;2023-06-10T05:14:56;98846.66;;;20.41;64.62
60337;BME280;46978;50.288;28.624;2023-06-10T05:15:58;98847.80;;;20.37;65.19
60337;BME280;46978;50.288;28.624;2023-06-10T05:17:00;98845.92;;;20.39;65.36
60337;BME280;46978;50.288;28.624;2023-06-10T05:18:02;98848.30;;;20.29;64.38
60337;BME280;46978;50.288;28.624;2023-06-10T05:19:04;98841.80;;;20.35;64.59
60337;BME280;46978;50.288;28.624;2023-06-10T05:20:07;98848.86;;;20.34;64.69
60337;BME280;46978;50.288;28.624;2023-06-10T05:21:09;98841.69;;;20.36;64.98
60337;BME280;46978;50.288;28.624;2023-06-10T05:22:11;98843.70;;;20.46;65.17
60337;BME280;46978;50.288;28.624;2023-06-10T05:23:12;98842.36;;;20.53;64.76
60337;BME280;46978;50.288;28.624;2023-06-10T05:24:14;98840.66;;;20.52;64.84
60337;BME280;46978;50.288;28.624;2023-06-10T05:25:16;98843.19;;;20.53;64.25
60337;BME280;46978;50.288;28.624;2023-06-10T05:26:18;98836.67;;;20.59;64.74
60337;BME280;46978;50.288;28.624;2023-06-10T05:27:19;98829.20;;;20.66;64.42
60337;BME280;46978;50.288;28.624;2023-06-10T05:28:21;98833.33;;;20.70;63.53